CW2274 Weather Reports


Display with metric or nautical units.
time (UTC)temp
F
wind
direction
speed
MPH
gust
MPH
rain 1hr
in
rain 24hr
in
rain mn
in
humidity
%
barometer
mb
20210117125823 38 245 2.0 3.0 0.00 0.00 0.00 32 1019.8
20210117125317 38 245 1.0 3.0 0.00 0.00 0.00 32 1019.9
20210117124829 38 245 1.0 2.0 0.00 0.00 0.00 32 1019.9
20210117124323 39 245 1.0 2.0 0.00 0.00 0.00 31 1019.9
20210117123818 39 245 0.0 1.0 0.00 0.00 0.00 30 1019.8
20210117123331 39 245 0.0 1.0 0.00 0.00 0.00 29 1019.8
20210117122829 39 245 0.0 2.0 0.00 0.00 0.00 30 1019.9
20210117122322 38 245 0.0 2.0 0.00 0.00 0.00 31 1019.7
20210117121815 40 245 0.0 2.0 0.00 0.00 0.00 30 1019.6
20210117121329 41 245 0.0 2.0 0.00 0.00 0.00 28 1019.7
20210117120823 41 245 0.0 2.0 0.00 0.00 0.00 28 1019.5
20210117120315 42 245 1.0 2.0 0.00 0.00 0.00 27 1019.5
20210117115825 43 245 1.0 2.0 0.00 0.00 0.00 27 1019.4
20210117115318 44 245 0.0 3.0 0.00 0.00 0.00 26 1019.5
20210117114818 46 245 1.0 4.0 0.00 0.00 0.00 25 1019.4
20210117114336 46 245 1.0 6.0 0.00 0.00 0.00 25 1019.4
20210117113821 46 245 3.0 6.0 0.00 0.00 0.00 25 1019.3
20210117113312 46 246 3.0 6.0 0.00 0.00 0.00 25 1019.3
20210117112826 46 246 4.0 6.0 0.00 0.00 0.00 25 1019.3
20210117112318 46 248 1.0 6.0 0.00 0.00 0.00 25 1019.3
20210117111840 46 250 3.0 6.0 0.00 0.00 0.00 25 1019.3
20210117111332 46 263 3.0 6.0 0.00 0.00 0.00 25 1019.2
20210117110836 45 267 2.0 3.0 0.00 0.00 0.00 28 1019.2
20210117110314 45 267 2.0 3.0 0.00 0.00 0.00 28 1019.3
20210117105826 44 267 1.0 4.0 0.00 0.00 0.00 29 1019.4
20210117105322 44 267 1.0 6.0 0.00 0.00 0.00 28 1019.3
20210117104812 45 267 3.0 6.0 0.00 0.00 0.00 27 1019.4
20210117104325 44 273 1.0 3.0 0.00 0.00 0.00 29 1019.4
20210117103817 43 273 1.0 3.0 0.00 0.00 0.00 30 1019.4
20210117103313 42 273 1.0 3.0 0.00 0.00 0.00 30 1019.4
20210117102826 42 273 1.0 3.0 0.00 0.00 0.00 31 1019.4
20210117102322 41 273 1.0 2.0 0.00 0.00 0.00 32 1019.4
20210117101831 41 273 1.0 3.0 0.00 0.00 0.00 31 1019.3
20210117101324 42 273 2.0 3.0 0.00 0.00 0.00 31 1019.3
20210117100816 41 273 0.0 3.0 0.00 0.00 0.00 31 1019.3
20210117100328 41 273 1.0 3.0 0.00 0.00 0.00 31 1019.4
20210117095819 40 273 1.0 3.0 0.00 0.00 0.00 31 1019.4
20210117095322 44 273 0.0 3.0 0.00 0.00 0.00 28 1019.4
20210117094827 45 273 2.0 4.0 0.00 0.00 0.00 27 1019.4
20210117094322 45 273 3.0 4.0 0.00 0.00 0.00 28 1019.4
20210117093817 44 273 2.0 3.0 0.00 0.00 0.00 29 1019.4
20210117093325 45 273 2.0 3.0 0.00 0.00 0.00 29 1019.5
20210117092819 45 273 2.0 3.0 0.00 0.00 0.00 28 1019.4
20210117092334 45 273 2.0 3.0 0.00 0.00 0.00 28 1019.4
20210117091825 44 273 2.0 3.0 0.00 0.00 0.00 28 1019.3
20210117091320 44 273 2.0 3.0 0.00 0.00 0.00 29 1019.3
20210117090813 44 273 2.0 3.0 0.00 0.00 0.00 29 1019.3
20210117090326 43 273 2.0 3.0 0.00 0.00 0.00 30 1019.3
20210117085815 43 273 1.0 3.0 0.00 0.00 0.00 30 1019.3
20210117085333 42 273 2.0 3.0 0.00 0.00 0.00 30 1019.3
20210117084823 42 273 2.0 3.0 0.00 0.00 0.00 30 1019.3
20210117084331 44 273 0.0 2.0 0.00 0.00 0.00 29 1019.2
20210117083822 43 273 0.0 2.0 0.00 0.00 0.00 29 1019.2
20210117083318 44 273 1.0 2.0 0.00 0.00 0.00 27 1019.1
20210117082830 45 273 0.0 2.0 0.00 0.00 0.00 27 1019.0
20210117082322 45 273 0.0 1.0 0.00 0.00 0.00 26 1019.0
20210117081815 46 273 0.0 3.0 0.00 0.00 0.00 27 1018.9
20210117081328 47 273 1.0 3.0 0.00 0.00 0.00 25 1018.7
20210117080821 47 273 2.0 3.0 0.00 0.00 0.00 25 1018.8
20210117080318 46 273 2.0 3.0 0.00 0.00 0.00 26 1018.8
20210117075828 47 273 2.0 3.0 0.00 0.00 0.00 26 1018.8
20210117075323 47 273 2.0 3.0 0.00 0.00 0.00 26 1018.9
20210117074818 46 273 1.0 2.0 0.00 0.00 0.00 27 1018.9
20210117074331 45 273 2.0 2.0 0.00 0.00 0.00 29 1018.9
20210117073822 46 273 0.0 1.0 0.00 0.00 0.00 29 1019.0
20210117073318 43 273 0.0 2.0 0.00 0.00 0.00 31 1018.9
20210117072835 45 273 1.0 3.0 0.00 0.00 0.00 30 1018.9
20210117072326 44 273 1.0 2.0 0.00 0.00 0.00 29 1018.9
20210117071822 46 273 0.0 0.0 0.00 0.00 0.00 29 1018.9
20210117071322 47 273 0.0 2.0 0.00 0.00 0.00 29 1019.0
20210117070831 45 273 1.0 2.0 0.00 0.00 0.00 29 1019.2
20210117070321 46 273 1.0 2.0 0.00 0.00 0.00 28 1019.1
20210117065813 46 273 1.0 2.0 0.00 0.00 0.00 28 1019.1
20210117065334 46 273 1.0 3.0 0.00 0.00 0.00 28 1019.1
20210117064818 46 273 1.0 3.0 0.00 0.00 0.00 28 1019.0
20210117064328 47 273 1.0 3.0 0.00 0.00 0.00 27 1019.1
20210117063822 47 273 1.0 2.0 0.00 0.00 0.00 27 1019.1
20210117063318 47 273 0.0 2.0 0.00 0.00 0.00 27 1019.0
20210117062822 46 273 1.0 3.0 0.00 0.00 0.00 27 1019.0
20210117062326 47 273 2.0 3.0 0.00 0.00 0.00 26 1018.9
20210117061859 49 273 2.0 3.0 0.00 0.00 0.00 26 1018.9
20210117061329 51 273 2.0 2.0 0.00 0.00 0.00 25 1018.8
20210117060822 51 273 0.0 2.0 0.00 0.00 0.00 24 1018.9
20210117060315 52 273 1.0 4.0 0.00 0.00 0.00 23 1018.9
20210117055843 52 273 2.0 4.0 0.00 0.00 0.00 23 1019.0
20210117055326 52 273 1.0 3.0 0.00 0.00 0.00 23 1019.0
20210117054826 51 273 2.0 4.0 0.00 0.00 0.00 23 1018.9
20210117054332 51 273 3.0 4.0 0.00 0.00 0.00 23 1018.9
20210117053822 55 273 0.0 2.0 0.00 0.00 0.00 21 1018.8
20210117053316 55 273 0.0 2.0 0.00 0.00 0.00 21 1018.8
20210117052833 56 273 0.0 2.0 0.00 0.00 0.00 20 1018.8
20210117052325 57 273 0.0 4.0 0.00 0.00 0.00 19 1018.7
20210117051819 56 273 2.0 4.0 0.00 0.00 0.00 20 1018.7
20210117051315 57 273 2.0 4.0 0.00 0.00 0.00 20 1018.6
20210117050830 57 273 3.0 4.0 0.00 0.00 0.00 19 1018.5
20210117050332 58 273 2.0 4.0 0.00 0.00 0.00 19 1018.5
20210117045821 58 273 2.0 4.0 0.00 0.00 0.00 18 1018.2
20210117045328 59 273 2.0 6.0 0.00 0.00 0.00 18 1018.1
20210117044822 59 273 2.0 6.0 0.00 0.00 0.00 18 1018.1
20210117044314 60 273 3.0 6.0 0.00 0.00 0.00 18 1018.0
20210117043828 59 273 0.0 6.0 0.00 0.00 0.00 18 1018.1
20210117043325 60 283 0.0 4.0 0.00 0.00 0.00 17 1017.8
20210117042837 61 283 2.0 6.0 0.00 0.00 0.00 17 1017.9
20210117042337 61 279 2.0 8.0 0.00 0.00 0.00 17 1017.7
20210117041832 61 280 5.0 8.0 0.00 0.00 0.00 17 1017.7
20210117041315 61 262 5.0 8.0 0.00 0.00 0.00 17 1017.6
20210117040828 60 279 4.0 8.0 0.00 0.00 0.00 17 1017.4
20210117040321 61 280 4.0 8.0 0.00 0.00 0.00 17 1017.6
20210117035812 61 275 3.0 6.0 0.00 0.00 0.00 16 1017.5
20210117035329 61 274 3.0 7.0 0.00 0.00 0.00 16 1017.6
20210117034824 61 273 3.0 7.0 0.00 0.00 0.00 16 1017.6
20210117034337 61 273 3.0 6.0 0.00 0.00 0.00 16 1017.5
20210117033837 60 273 3.0 4.0 0.00 0.00 0.00 16 1017.5
20210117033328 61 273 1.0 3.0 0.00 0.00 0.00 15 1017.5
20210117032830 61 273 0.0 2.0 0.00 0.00 0.00 16 1017.6
20210117032331 62 273 1.0 4.0 0.00 0.00 0.00 15 1017.6
20210117031834 63 273 0.0 8.0 0.00 0.00 0.00 14 1017.4
20210117031337 63 273 3.0 8.0 0.00 0.00 0.00 13 1017.4
20210117030837 63 279 6.0 8.0 0.00 0.00 0.00 13 1017.4
20210117030337 63 281 4.0 7.0 0.00 0.00 0.00 13 1017.3
20210117025829 63 283 4.0 7.0 0.00 0.00 0.00 13 1017.3
20210117025338 63 281 5.0 9.0 0.00 0.00 0.00 12 1017.4
20210117024837 63 281 4.0 9.0 0.00 0.00 0.00 12 1017.2
20210117024335 63 280 5.0 9.0 0.00 0.00 0.00 12 1017.2
20210117023837 63 275 3.0 10.0 0.00 0.00 0.00 12 1017.2
20210117023337 64 285 6.0 10.0 0.00 0.00 0.00 12 1017.3
20210117022833 64 264 5.0 9.0 0.00 0.00 0.00 12 1017.2
20210117022343 64 264 4.0 9.0 0.00 0.00 0.00 12 1017.2
20210117021826 64 264 5.0 9.0 0.00 0.00 0.00 12 1017.2
20210117021330 64 277 3.0 8.0 0.00 0.00 0.00 12 1017.2
20210117020828 64 287 3.0 8.0 0.00 0.00 0.00 12 1017.0
20210117020333 64 279 4.0 7.0 0.00 0.00 0.00 12 1017.0
20210117015850 65 279 3.0 8.0 0.00 0.00 0.00 12 1016.9
20210117015334 65 272 4.0 8.0 0.00 0.00 0.00 12 1016.8
20210117014834 65 279 5.0 8.0 0.00 0.00 0.00 11 1016.9
20210117014342 66 276 4.0 9.0 0.00 0.00 0.00 11 1016.8
20210117013841 66 277 5.0 9.0 0.00 0.00 0.00 11 1016.8
20210117013351 66 281 4.0 11.0 0.00 0.00 0.00 10 1016.7
20210117012829 66 264 3.0 11.0 0.00 0.00 0.00 10 1016.7
20210117012327 66 266 5.0 10.0 0.00 0.00 0.00 10 1016.7
20210117011836 67 277 5.0 10.0 0.00 0.00 0.00 10 1016.6
20210117011338 67 275 5.0 9.0 0.00 0.00 0.00 10 1016.8
20210117010844 67 279 4.0 9.0 0.00 0.00 0.00 10 1016.7
20210117010342 68 281 4.0 8.0 0.00 0.00 0.00 9 1016.6
20210117005842 68 282 4.0 8.0 0.00 0.00 0.00 9 1016.4
20210117005326 68 275 4.0 8.0 0.00 0.00 0.00 9 1016.4
20210117004828 68 279 4.0 8.0 0.00 0.00 0.00 9 1016.3
20210117004341 69 277 4.0 7.0 0.00 0.00 0.00 9 1016.3
20210117003822 69 279 3.0 7.0 0.00 0.00 0.00 9 1016.3
20210117003344 70 279 3.0 7.0 0.00 0.00 0.00 9 1016.3
20210117002825 70 277 4.0 9.0 0.00 0.00 0.00 8 1016.1
20210117002331 71 271 4.0 9.0 0.00 0.00 0.00 8 1016.1
20210117001827 72 285 4.0 9.0 0.00 0.00 0.00 8 1016.1
20210117001324 72 274 5.0 10.0 0.00 0.00 0.00 8 1016.0
20210117000837 73 291 5.0 11.0 0.00 0.00 0.00 7 1016.0
20210117000400 73 273 5.0 12.0 0.00 0.00 0.00 7 1015.9
20210116235834 74 283 7.0 12.0 0.00 0.00 0.00 7 1015.9
20210116235338 74 241 6.0 12.0 0.00 0.00 0.00 6 1015.9
20210116234839 74 268 6.0 12.0 0.00 0.00 0.00 7 1015.9
20210116234322 75 277 5.0 11.0 0.00 0.00 0.00 6 1016.0
20210116233838 75 276 5.0 11.0 0.00 0.00 0.00 6 1016.0
20210116233339 75 275 5.0 11.0 0.00 0.00 0.00 6 1016.0
20210116232829 76 301 4.0 12.0 0.00 0.00 0.00 6 1015.9
20210116232335 76 268 6.0 12.0 0.00 0.00 0.00 6 1015.8
20210116231837 76 287 6.0 13.0 0.00 0.00 0.00 6 1015.8
20210116231339 76 278 4.0 13.0 0.00 0.00 0.00 6 1015.9
20210116230840 76 284 6.0 12.0 0.00 0.00 0.00 6 1015.8
20210116230331 76 262 6.0 11.0 0.00 0.00 0.00 6 1015.9
20210116224826 77 281 5.0 13.0 0.00 0.00 0.00 6 1015.9
20210116224329 77 281 5.0 13.0 0.00 0.00 0.00 5 1015.9
20210116223830 77 268 4.0 10.0 0.00 0.00 0.00 5 1015.8
20210116223331 77 290 2.0 8.0 0.00 0.00 0.00 6 1015.8
20210116222843 77 311 3.0 9.0 0.00 0.00 0.00 5 1015.9
20210116222325 78 297 3.0 9.0 0.00 0.00 0.00 5 1015.8
20210116221842 78 323 3.0 11.0 0.00 0.00 0.00 5 1015.8
20210116221334 78 287 6.0 11.0 0.00 0.00 0.00 5 1015.7
20210116220836 79 291 4.0 9.0 0.00 0.00 0.00 5 1015.6
20210116220338 80 321 2.0 9.0 0.00 0.00 0.00 4 1015.6
20210116215836 80 277 2.0 9.0 0.00 0.00 0.00 4 1015.5
20210116215339 80 273 5.0 9.0 0.00 0.00 0.00 4 1015.4
20210116214840 80 289 2.0 9.0 0.00 0.00 0.00 4 1015.3
20210116214352 80 281 3.0 9.0 0.00 0.00 0.00 4 1015.4
20210116213833 81 317 2.0 7.0 0.00 0.00 0.00 4 1015.5
20210116213329 80 313 2.0 8.0 0.00 0.00 0.00 4 1015.4
20210116212830 80 277 3.0 9.0 0.00 0.00 0.00 4 1015.3
20210116212332 81 290 3.0 9.0 0.00 0.00 0.00 4 1015.3
20210116211835 80 288 3.0 7.0 0.00 0.00 0.00 5 1015.3
20210116211344 80 285 3.0 7.0 0.00 0.00 0.00 5 1015.3
20210116210842 79 280 2.0 8.0 0.00 0.00 0.00 5 1015.3
20210116210341 80 280 3.0 8.0 0.00 0.00 0.00 6 1015.5
20210116205832 79 282 3.0 10.0 0.00 0.00 0.00 5 1015.5
20210116205338 79 348 3.0 10.0 0.00 0.00 0.00 4 1015.4
20210116204839 80 331 3.0 7.0 0.00 0.00 0.00 4 1015.7
20210116204346 80 323 2.0 7.0 0.00 0.00 0.00 5 1015.5
20210116203825 79 319 2.0 7.0 0.00 0.00 0.00 6 1015.7
20210116203330 79 346 2.0 4.0 0.00 0.00 0.00 6 1015.8
20210116202839 78 349 2.0 4.0 0.00 0.00 0.00 6 1015.9
20210116202321 78 347 2.0 4.0 0.00 0.00 0.00 6 1015.9
20210116201833 78 347 1.0 5.0 0.00 0.00 0.00 6 1015.8
20210116201325 78 348 2.0 5.0 0.00 0.00 0.00 6 1015.9
20210116200818 75 347 1.0 4.0 0.00 0.00 0.00 7 1016.1
20210116200332 76 347 0.0 4.0 0.00 0.00 0.00 7 1016.2
20210116195822 76 347 2.0 4.0 0.00 0.00 0.00 7 1016.4
20210116195316 77 348 2.0 5.0 0.00 0.00 0.00 8 1016.4
20210116194827 76 348 1.0 5.0 0.00 0.00 0.00 8 1016.6
20210116194319 75 347 1.0 4.0 0.00 0.00 0.00 8 1016.8
20210116193833 73 348 1.0 4.0 0.00 0.00 0.00 8 1017.0
20210116193330 73 32 1.0 4.0 0.00 0.00 0.00 8 1017.0
20210116192827 73 53 2.0 4.0 0.00 0.00 0.00 9 1017.3
20210116192338 71 54 1.0 4.0 0.00 0.00 0.00 10 1017.3
20210116191844 72 58 2.0 4.0 0.00 0.00 0.00 10 1017.6
20210116191316 70 61 2.0 4.0 0.00 0.00 0.00 11 1017.8
20210116190831 70 61 1.0 6.0 0.00 0.00 0.00 10 1017.9
20210116190323 69 61 2.0 6.0 0.00 0.00 0.00 11 1018.0
20210116185835 69 63 3.0 6.0 0.00 0.00 0.00 11 1018.1
20210116185334 68 70 3.0 6.0 0.00 0.00 0.00 12 1018.2
20210116184830 68 75 2.0 4.0 0.00 0.00 0.00 12 1018.2
20210116184315 68 75 3.0 6.0 0.00 0.00 0.00 12 1018.2
20210116183829 67 75 3.0 6.0 0.00 0.00 0.00 12 1018.2
20210116183321 66 85 1.0 4.0 0.00 0.00 0.00 12 1018.1
20210116182948 66 85 2.0 4.0 0.00 0.00 0.00 13 1018.3
20210116182707 65 98 2.0 8.0 0.00 0.00 0.00 13 1018.3
20210116182135 66 97 4.0 8.0 0.00 0.00 0.00 13 1018.3
20210116181558 65 115 2.0 4.0 0.00 0.00 0.00 13 1018.4
20210116180857 64 115 3.0 8.0 0.00 0.00 0.00 14 1018.6
20210116180320 63 116 4.0 9.0 0.00 0.00 0.00 13 1018.8
20210116175829 62 114 4.0 8.0 0.00 0.00 0.00 14 1018.7
20210116175320 62 98 4.0 9.0 0.00 0.00 0.00 15 1018.8
20210116174813 61 98 6.0 9.0 0.00 0.00 0.00 15 1018.9
20210116174325 61 116 4.0 8.0 0.00 0.00 0.00 15 1018.8
20210116173817 60 116 3.0 8.0 0.00 0.00 0.00 16 1018.9
20210116173312 60 142 4.0 9.0 0.00 0.00 0.00 16 1018.9
20210116172825 59 144 2.0 10.0 0.00 0.00 0.00 16 1018.9
20210116172318 58 138 3.0 10.0 0.00 0.00 0.00 17 1018.9
20210116171837 58 120 4.0 9.0 0.00 0.00 0.00 16 1018.9
20210116171326 58 137 3.0 9.0 0.00 0.00 0.00 17 1018.9
20210116170819 57 150 2.0 6.0 0.00 0.00 0.00 18 1019.0
20210116170329 55 159 4.0 9.0 0.00 0.00 0.00 18 1019.1
20210116165820 55 196 4.0 9.0 0.00 0.00 0.00 19 1019.2
20210116165325 54 150 3.0 9.0 0.00 0.00 0.00 19 1019.3
20210116164834 54 127 4.0 9.0 0.00 0.00 0.00 20 1019.4
20210116164322 53 107 4.0 8.0 0.00 0.00 0.00 20 1019.4
20210116163824 54 95 4.0 9.0 0.00 0.00 0.00 20 1019.4
20210116163327 53 94 4.0 9.0 0.00 0.00 0.00 22 1019.3
20210116162819 52 75 4.0 8.0 0.00 0.00 0.00 22 1019.3
20210116162332 52 76 5.0 10.0 0.00 0.00 0.00 23 1019.3
20210116161824 51 73 7.0 10.0 0.00 0.00 0.00 24 1019.3
20210116161329 51 82 7.0 11.0 0.00 0.00 0.00 23 1019.2
20210116160835 50 73 7.0 11.0 0.00 0.00 0.00 24 1018.9
20210116160322 51 65 5.0 9.0 0.00 0.00 0.00 24 1018.8
20210116155813 52 58 5.0 9.0 0.00 0.00 0.00 23 1018.5
20210116155326 54 242 2.0 6.0 0.00 0.00 0.00 19 1018.4
20210116154821 52 242 3.0 6.0 0.00 0.00 0.00 21 1018.4
20210116154321 51 244 3.0 5.0 0.00 0.00 0.00 23 1018.4
20210116153826 50 245 3.0 6.0 0.00 0.00 0.00 24 1018.3
20210116153321 48 246 3.0 8.0 0.00 0.00 0.00 26 1018.4
20210116152818 47 231 3.0 8.0 0.00 0.00 0.00 26 1018.4
20210116152325 46 236 4.0 8.0 0.00 0.00 0.00 27 1018.5
20210116151821 45 196 1.0 4.0 0.00 0.00 0.00 28 1018.8
20210116151315 45 183 2.0 3.0 0.00 0.00 0.00 29 1019.0
20210116150824 45 183 0.0 2.0 0.00 0.00 0.00 29 1019.1
20210116150317 45 183 1.0 2.0 0.00 0.00 0.00 28 1019.2
20210116145811 45 183 0.0 2.0 0.00 0.00 0.00 35 1019.0
20210116145326 44 183 0.0 4.0 0.00 0.00 0.00 29 1019.0
20210116144816 44 183 1.0 4.0 0.00 0.00 0.00 29 1019.1
20210116144329 44 183 2.0 4.0 0.00 0.00 0.00 29 1019.0
20210116143819 44 183 0.0 2.0 0.00 0.00 0.00 28 1018.8
20210116143330 43 183 1.0 3.0 0.00 0.00 0.00 28 1018.4
20210116142823 43 183 1.0 3.0 0.00 0.00 0.00 29 1018.3
20210116142318 43 183 1.0 3.0 0.00 0.00 0.00 29 1018.3
20210116141814 43 183 1.0 4.0 0.00 0.00 0.00 27 1018.2
20210116141419 44 183 2.0 3.0 0.00 0.00 0.00 26 1018.2
20210116140820 46 183 0.0 3.0 0.00 0.00 0.00 25 1017.9
20210116140403 47 183 2.0 5.0 0.00 0.00 0.00 25 1017.7
20210116135929 47 183 3.0 5.0 0.00 0.00 0.00 24 1017.5
20210116135327 47 186 2.0 8.0 0.00 0.00 0.00 24 1017.5
20210116134828 47 196 3.0 8.0 0.00 0.00 0.00 25 1017.5
20210116134320 47 189 2.0 5.0 0.00 0.00 0.00 25 1017.4
20210116133820 46 192 2.0 4.0 0.00 0.00 0.00 25 1017.4
20210116133332 44 195 1.0 2.0 0.00 0.00 0.00 28 1017.6
20210116132822 43 195 0.0 2.0 0.00 0.00 0.00 28 1017.5
20210116132318 43 195 1.0 2.0 0.00 0.00 0.00 29 1017.7
20210116131828 42 195 2.0 3.0 0.00 0.00 0.00 28 1017.7
20210116131329 43 195 1.0 3.0 0.00 0.00 0.00 27 1017.7
20210116130828 45 195 1.0 3.0 0.00 0.00 0.00 26 1017.8
20210116130517 46 195 2.0 5.0 0.00 0.00 0.00 25 1017.7